createdAt,value
2022-08-11T00:09:40.880Z,1022.4
2022-08-11T00:24:50.937Z,1022.3
2022-08-11T00:39:33.123Z,1022.4
2022-08-11T00:54:28.746Z,1022.4
2022-08-11T01:09:24.546Z,1022.5
2022-08-11T01:24:20.020Z,1022.6
2022-08-11T01:39:17.909Z,1022.6
2022-08-11T01:54:11.995Z,1022.7
2022-08-11T02:09:08.107Z,1022.7
2022-08-11T02:24:07.466Z,1022.8
2022-08-11T02:38:59.815Z,1022.7
2022-08-11T02:53:58.028Z,1022.7
2022-08-11T03:08:52.048Z,1022.8
2022-08-11T03:23:48.209Z,1022.8
2022-08-11T03:38:44.343Z,1022.8
2022-08-11T03:53:40.057Z,1022.8
2022-08-11T04:08:36.569Z,1022.8
2022-08-11T04:24:13.589Z,1022.7
2022-08-11T04:38:28.728Z,1022.8
2022-08-11T04:53:24.857Z,1023
2022-08-11T05:08:23.994Z,1023
2022-08-11T05:23:17.699Z,1023.1
2022-08-11T05:38:14.002Z,1023.1
2022-08-11T05:53:11.956Z,1023.1
2022-08-11T06:08:06.741Z,1023.2
2022-08-11T06:23:03.285Z,1023.2
2022-08-11T06:37:59.949Z,1023.1
2022-08-11T06:52:56.741Z,1023.1
2022-08-11T07:07:53.490Z,1023
2022-08-11T07:22:49.908Z,1023
2022-08-11T07:37:46.641Z,1022.8
2022-08-11T07:52:43.530Z,1022.7
2022-08-11T08:07:39.838Z,1022.7
2022-08-11T08:22:38.543Z,1022.7
2022-08-11T08:37:45.165Z,1022.6
2022-08-11T08:52:31.776Z,1022.5
2022-08-11T09:07:27.148Z,1022.5
2022-08-11T09:22:24.311Z,1022.4
2022-08-11T09:37:28.762Z,1022.3
2022-08-11T09:52:18.193Z,1022.2
2022-08-11T10:07:15.268Z,1022.1
2022-08-11T10:22:12.389Z,1022
2022-08-11T10:37:08.907Z,1021.9
2022-08-11T10:52:05.332Z,1021.7
2022-08-11T11:07:02.423Z,1021.5
2022-08-11T11:21:59.524Z,1021.4
2022-08-11T11:36:56.191Z,1021.3
2022-08-11T11:51:52.904Z,1021
2022-08-11T12:06:48.655Z,1021
2022-08-11T12:21:44.875Z,1020.7
2022-08-11T12:36:41.657Z,1020.5
2022-08-11T12:52:01.087Z,1020.4
2022-08-11T13:06:33.847Z,1020.2
2022-08-11T13:21:30.279Z,1020.1
2022-08-11T13:36:25.878Z,1019.9
2022-08-11T13:51:21.952Z,1019.8
2022-08-11T14:06:17.282Z,1019.6
2022-08-11T14:21:13.261Z,1019.4
2022-08-11T14:36:09.176Z,1019.3
2022-08-11T14:51:05.245Z,1019.2
2022-08-11T15:06:01.341Z,1019
2022-08-11T15:20:57.380Z,1019
2022-08-11T15:35:53.659Z,1018.7
2022-08-11T15:50:50.725Z,1018.7
2022-08-11T16:05:52.267Z,1018.5
2022-08-11T16:20:41.975Z,1018.4
2022-08-11T16:35:38.524Z,1018.4
2022-08-11T16:50:35.089Z,1018.2
2022-08-11T17:05:31.209Z,1018.3
2022-08-11T17:20:39.321Z,1018.2
2022-08-11T17:35:23.120Z,1018.2
2022-08-11T17:50:19.502Z,1018.2
2022-08-11T18:05:15.646Z,1018.2
2022-08-11T18:20:11.425Z,1018.3
2022-08-11T18:35:07.399Z,1018.4
2022-08-11T18:50:04.168Z,1018.5
2022-08-11T19:04:58.952Z,1018.6
2022-08-11T19:19:55.087Z,1018.8
2022-08-11T19:34:50.841Z,1019
2022-08-11T19:49:46.105Z,1019.1
2022-08-11T20:04:41.692Z,1019.2
2022-08-11T20:19:55.838Z,1019.2
2022-08-11T20:34:32.943Z,1019.3
2022-08-11T20:49:28.491Z,1019.3
2022-08-11T21:04:24.677Z,1019.3
2022-08-11T21:19:54.768Z,1019.3
2022-08-11T21:34:16.761Z,1019.4
2022-08-11T21:49:13.842Z,1019.4
2022-08-11T22:04:08.724Z,1019.5
2022-08-11T22:19:04.806Z,1019.4
2022-08-11T22:34:02.471Z,1019.5
2022-08-11T22:48:57.649Z,1019.5
2022-08-11T23:03:53.489Z,1019.6
2022-08-11T23:18:49.131Z,1019.6
2022-08-11T23:33:45.222Z,1019.6
2022-08-11T23:48:41.577Z,1019.6
